PWSweather.com
Personal Weather Stations
Station Observations
KTXHONEY1
Honey Grove, TX 75446

Honey Grove, TX 75446

Lat: 33.71900177, Lon: -95.93800354

Elevation: 542

Station Type: Davis Vantage Vue

Latest ConditionsUpdated 3:25:00 AM CDT Monday, Aug 26, 2019
Currently Today's Max Today's Min Today's Average
Temperature 77.4°F25.2°C 78.7°F25.9°C 77.4°F25.2°C 78.2°F25.7°C
Dew Point 74.9°F23.8°C 75.5°F24.2°C 74.8°F23.8°C 75.2°F24.0°C
Winds Calm Calm Calm -Calm - - Calm Calm
Wind Gusts -- -- - -
Humidity 92% 92% 89% 91%
Pressure 29.71 in1006.1 mb 29.73 in1006.8 mb 29.71 in1006.1 mb -
Hour Temp Dew Point Humidity Winds Wind Gusts Pressure Precip Precip Rate Daily Precip Total
03:25 AM 77.4°F25.2°C 74.9°F23.8°C 92% Calm Calm -- 29.71 in1006.1 mb - 0.00 in0.0 mm 0.00 in0.0 mm
03:20 AM 77.5°F25.3°C 75.0°F23.9°C 92% Calm Calm -- 29.71 in1006.1 mb - 0.00 in0.0 mm 0.00 in0.0 mm
03:15 AM 77.5°F25.3°C 75.0°F23.9°C 92% Calm Calm -- 29.71 in1006.1 mb - 0.00 in0.0 mm 0.00 in0.0 mm
03:10 AM 77.6°F25.3°C 75.1°F23.9°C 92% Calm Calm -- 29.71 in1006.1 mb - 0.00 in0.0 mm 0.00 in0.0 mm
03:00 AM 77.7°F25.4°C 75.2°F24.0°C 92% Calm Calm -- 29.71 in1006.1 mb - 0.00 in0.0 mm 0.00 in0.0 mm
02:55 AM 77.8°F25.4°C 75.3°F24.1°C 92% Calm Calm -- 29.71 in1006.1 mb - 0.00 in0.0 mm 0.00 in0.0 mm
02:50 AM 77.8°F25.4°C 75.3°F24.1°C 92% Calm Calm -- 29.71 in1006.1 mb - 0.00 in0.0 mm 0.00 in0.0 mm
02:45 AM 77.9°F25.5°C 75.1°F23.9°C 91% Calm Calm -- 29.71 in1006.1 mb - 0.00 in0.0 mm 0.00 in0.0 mm
02:40 AM 78.0°F25.6°C 75.2°F24.0°C 91% Calm Calm -- 29.71 in1006.1 mb - 0.00 in0.0 mm 0.00 in0.0 mm
02:35 AM 78.1°F25.6°C 75.3°F24.1°C 91% Calm Calm -- 29.71 in1006.1 mb - 0.00 in0.0 mm 0.00 in0.0 mm
02:30 AM 78.2°F25.7°C 75.4°F24.1°C 91% Calm Calm -- 29.71 in1006.1 mb - 0.00 in0.0 mm 0.00 in0.0 mm
02:25 AM 78.3°F25.7°C 75.5°F24.2°C 91% Calm Calm -- 29.71 in1006.1 mb - 0.00 in0.0 mm 0.00 in0.0 mm
02:20 AM 78.3°F25.7°C 75.5°F24.2°C 91% Calm Calm -- 29.71 in1006.1 mb - 0.00 in0.0 mm 0.00 in0.0 mm
02:15 AM 78.3°F25.7°C 75.4°F24.1°C 91% Calm Calm -- 29.71 in1006.1 mb - 0.00 in0.0 mm 0.00 in0.0 mm
02:10 AM 78.2°F25.7°C 75.4°F24.1°C 91% Calm Calm -- 29.72 in1006.4 mb - 0.00 in0.0 mm 0.00 in0.0 mm
02:00 AM 78.1°F25.6°C 75.3°F24.1°C 91% Calm Calm -- 29.72 in1006.4 mb - 0.00 in0.0 mm 0.00 in0.0 mm
01:55 AM 78.1°F25.6°C 75.3°F24.1°C 91% Calm Calm -- 29.72 in1006.4 mb - 0.00 in0.0 mm 0.00 in0.0 mm
01:50 AM 78.1°F25.6°C 75.3°F24.1°C 91% Calm Calm -- 29.72 in1006.4 mb - 0.00 in0.0 mm 0.00 in0.0 mm
01:45 AM 78.1°F25.6°C 75.3°F24.1°C 91% Calm Calm -- 29.72 in1006.4 mb - 0.00 in0.0 mm 0.00 in0.0 mm
01:40 AM 78.1°F25.6°C 75.3°F24.1°C 91% Calm Calm -- 29.72 in1006.4 mb - 0.00 in0.0 mm 0.00 in0.0 mm
01:35 AM 78.2°F25.7°C 75.0°F23.9°C 90% Calm Calm -- 29.72 in1006.4 mb - 0.00 in0.0 mm 0.00 in0.0 mm
01:30 AM 78.2°F25.7°C 75.0°F23.9°C 90% Calm Calm -- 29.72 in1006.4 mb - 0.00 in0.0 mm 0.00 in0.0 mm
01:25 AM 78.3°F25.7°C 75.1°F23.9°C 90% Calm Calm -- 29.72 in1006.4 mb - 0.00 in0.0 mm 0.00 in0.0 mm
01:20 AM 78.4°F25.8°C 75.2°F24.0°C 90% Calm Calm -- 29.72 in1006.4 mb - 0.00 in0.0 mm 0.00 in0.0 mm
01:15 AM 78.4°F25.8°C 75.2°F24.0°C 90% Calm Calm -- 29.72 in1006.4 mb - 0.00 in0.0 mm 0.00 in0.0 mm
01:10 AM 78.5°F25.8°C 75.3°F24.1°C 90% Calm Calm -- 29.72 in1006.4 mb - 0.00 in0.0 mm 0.00 in0.0 mm
01:00 AM 78.6°F25.9°C 75.4°F24.1°C 90% Calm Calm -- 29.72 in1006.4 mb - 0.00 in0.0 mm 0.00 in0.0 mm
12:55 AM 78.7°F25.9°C 75.2°F24.0°C 89% Calm Calm -- 29.72 in1006.4 mb - 0.00 in0.0 mm 0.00 in0.0 mm
12:50 AM 78.7°F25.9°C 75.5°F24.2°C 90% Calm Calm -- 29.72 in1006.4 mb - 0.00 in0.0 mm 0.00 in0.0 mm
12:45 AM 78.6°F25.9°C 75.4°F24.1°C 90% Calm Calm -- 29.73 in1006.8 mb - 0.00 in0.0 mm 0.00 in0.0 mm
12:40 AM 78.5°F25.8°C 75.3°F24.1°C 90% Calm Calm -- 29.73 in1006.8 mb - 0.00 in0.0 mm 0.00 in0.0 mm
12:35 AM 78.5°F25.8°C 75.3°F24.1°C 90% Calm Calm -- 29.73 in1006.8 mb - 0.00 in0.0 mm 0.00 in0.0 mm
12:30 AM 78.5°F25.8°C 75.3°F24.1°C 90% Calm Calm -- 29.73 in1006.8 mb - 0.00 in0.0 mm 0.00 in0.0 mm
12:25 AM 78.5°F25.8°C 75.3°F24.1°C 90% Calm Calm -- 29.73 in1006.8 mb - 0.00 in0.0 mm 0.00 in0.0 mm
12:20 AM 78.5°F25.8°C 75.3°F24.1°C 90% Calm Calm -- 29.73 in1006.8 mb - 0.00 in0.0 mm 0.00 in0.0 mm
12:15 AM 78.3°F25.7°C 75.1°F23.9°C 90% Calm Calm -- 29.73 in1006.8 mb - 0.00 in0.0 mm 0.00 in0.0 mm
12:10 AM 78.3°F25.7°C 74.8°F23.8°C 89% Calm Calm -- 29.73 in1006.8 mb - 0.00 in0.0 mm 0.00 in0.0 mm
12:00 AM 78.0°F25.6°C 74.8°F23.8°C 90% Calm Calm -- 29.73 in1006.8 mb - 0.00 in0.0 mm 0.00 in0.0 mm